Terminal Aerodrome Forecast
Issued by NWS

Home | Current Version | Previous Version | Text Only | Print | Product List | Glossary On
Versions: 1 2 3 4 5 6 7 8 9 10 11 12 13 14 15 16
165
FTUS45 KVEF 302327
TAFBIH
TAF
KBIH 302327Z 0100/0124 36020G30KT P6SM BKN100
     FM010600 35015G25KT P6SM VCSH BKN060=

USA.gov is the U.S. government's official web portal to all federal, state and local government web resources and services.